sensor_id;sensor_type;location;lat;lon;timestamp;P1;durP1;ratioP1;P2;durP2;ratioP2
70832;SDS011;58452;59.418;17.962;2023-04-24T00:02:22;3.25;;;1.75;;
70832;SDS011;58452;59.418;17.962;2023-04-24T00:04:48;4.32;;;2.25;;
70832;SDS011;58452;59.418;17.962;2023-04-24T00:07:14;8.15;;;3.08;;
70832;SDS011;58452;59.418;17.962;2023-04-24T00:09:42;2.47;;;2.28;;
70832;SDS011;58452;59.418;17.962;2023-04-24T00:12:09;2.60;;;2.28;;
70832;SDS011;58452;59.418;17.962;2023-04-24T00:14:35;3.15;;;1.80;;
70832;SDS011;58452;59.418;17.962;2023-04-24T00:17:01;3.47;;;2.42;;
70832;SDS011;58452;59.418;17.962;2023-04-24T00:19:27;1.77;;;1.67;;
70832;SDS011;58452;59.418;17.962;2023-04-24T00:21:53;1.60;;;1.50;;
70832;SDS011;58452;59.418;17.962;2023-04-24T00:24:19;2.35;;;1.88;;
70832;SDS011;58452;59.418;17.962;2023-04-24T00:26:45;1.88;;;1.65;;
70832;SDS011;58452;59.418;17.962;2023-04-24T00:29:10;2.03;;;1.83;;
70832;SDS011;58452;59.418;17.962;2023-04-24T00:31:35;2.20;;;2.03;;
70832;SDS011;58452;59.418;17.962;2023-04-24T00:34:01;3.65;;;1.92;;
70832;SDS011;58452;59.418;17.962;2023-04-24T00:36:27;2.50;;;2.08;;
70832;SDS011;58452;59.418;17.962;2023-04-24T00:38:54;2.40;;;2.13;;
70832;SDS011;58452;59.418;17.962;2023-04-24T00:41:20;2.15;;;1.85;;
70832;SDS011;58452;59.418;17.962;2023-04-24T00:43:46;3.55;;;2.28;;
70832;SDS011;58452;59.418;17.962;2023-04-24T00:46:13;3.65;;;2.13;;
70832;SDS011;58452;59.418;17.962;2023-04-24T00:48:39;2.35;;;1.45;;
70832;SDS011;58452;59.418;17.962;2023-04-24T00:51:05;3.33;;;1.75;;
70832;SDS011;58452;59.418;17.962;2023-04-24T00:53:30;1.27;;;1.17;;
70832;SDS011;58452;59.418;17.962;2023-04-24T00:55:56;4.32;;;1.48;;
70832;SDS011;58452;59.418;17.962;2023-04-24T00:58:22;3.67;;;1.45;;
70832;SDS011;58452;59.418;17.962;2023-04-24T01:00:48;4.65;;;1.60;;
70832;SDS011;58452;59.418;17.962;2023-04-24T01:03:18;1.17;;;0.95;;
70832;SDS011;58452;59.418;17.962;2023-04-24T01:05:45;1.10;;;1.00;;
70832;SDS011;58452;59.418;17.962;2023-04-24T01:08:11;2.20;;;1.10;;
70832;SDS011;58452;59.418;17.962;2023-04-24T01:10:36;3.30;;;1.77;;
70832;SDS011;58452;59.418;17.962;2023-04-24T01:13:03;3.22;;;1.30;;
70832;SDS011;58452;59.418;17.962;2023-04-24T01:15:29;3.13;;;1.73;;
70832;SDS011;58452;59.418;17.962;2023-04-24T01:17:54;5.13;;;1.80;;
70832;SDS011;58452;59.418;17.962;2023-04-24T01:20:21;3.58;;;1.63;;
70832;SDS011;58452;59.418;17.962;2023-04-24T01:22:46;3.65;;;1.05;;
70832;SDS011;58452;59.418;17.962;2023-04-24T01:25:12;4.18;;;1.25;;
70832;SDS011;58452;59.418;17.962;2023-04-24T01:27:37;4.15;;;1.38;;
70832;SDS011;58452;59.418;17.962;2023-04-24T01:30:06;2.47;;;1.10;;
70832;SDS011;58452;59.418;17.962;2023-04-24T01:32:32;3.90;;;1.15;;
70832;SDS011;58452;59.418;17.962;2023-04-24T01:34:58;4.32;;;1.33;;
70832;SDS011;58452;59.418;17.962;2023-04-24T01:37:24;3.30;;;1.45;;
70832;SDS011;58452;59.418;17.962;2023-04-24T01:39:49;3.83;;;1.73;;
70832;SDS011;58452;59.418;17.962;2023-04-24T01:42:15;5.38;;;1.90;;
70832;SDS011;58452;59.418;17.962;2023-04-24T01:44:41;6.45;;;1.40;;
70832;SDS011;58452;59.418;17.962;2023-04-24T01:47:07;2.85;;;1.42;;
70832;SDS011;58452;59.418;17.962;2023-04-24T01:49:32;6.78;;;2.90;;
70832;SDS011;58452;59.418;17.962;2023-04-24T01:51:58;2.60;;;1.73;;
70832;SDS011;58452;59.418;17.962;2023-04-24T01:54:23;2.05;;;1.30;;
70832;SDS011;58452;59.418;17.962;2023-04-24T01:56:49;4.50;;;1.60;;
70832;SDS011;58452;59.418;17.962;2023-04-24T01:59:14;7.05;;;1.92;;
70832;SDS011;58452;59.418;17.962;2023-04-24T02:01:42;4.03;;;1.98;;
70832;SDS011;58452;59.418;17.962;2023-04-24T02:04:07;3.20;;;1.65;;
70832;SDS011;58452;59.418;17.962;2023-04-24T02:06:33;4.10;;;3.03;;
70832;SDS011;58452;59.418;17.962;2023-04-24T02:08:59;5.03;;;1.70;;
70832;SDS011;58452;59.418;17.962;2023-04-24T02:11:25;3.47;;;1.50;;
70832;SDS011;58452;59.418;17.962;2023-04-24T02:13:50;4.60;;;2.50;;
70832;SDS011;58452;59.418;17.962;2023-04-24T02:16:16;5.47;;;1.85;;
70832;SDS011;58452;59.418;17.962;2023-04-24T02:18:42;5.88;;;1.70;;
70832;SDS011;58452;59.418;17.962;2023-04-24T02:21:07;5.72;;;2.08;;
70832;SDS011;58452;59.418;17.962;2023-04-24T02:23:33;5.07;;;1.73;;
70832;SDS011;58452;59.418;17.962;2023-04-24T02:25:58;4.50;;;2.60;;
70832;SDS011;58452;59.418;17.962;2023-04-24T02:28:24;5.38;;;2.47;;
70832;SDS011;58452;59.418;17.962;2023-04-24T02:30:49;4.28;;;2.38;;
70832;SDS011;58452;59.418;17.962;2023-04-24T02:33:16;9.35;;;2.78;;
70832;SDS011;58452;59.418;17.962;2023-04-24T02:35:41;3.42;;;1.90;;
70832;SDS011;58452;59.418;17.962;2023-04-24T02:38:07;5.22;;;2.83;;
70832;SDS011;58452;59.418;17.962;2023-04-24T02:40:32;4.07;;;2.25;;
70832;SDS011;58452;59.418;17.962;2023-04-24T02:42:58;8.35;;;2.42;;
70832;SDS011;58452;59.418;17.962;2023-04-24T02:45:23;7.47;;;2.63;;
70832;SDS011;58452;59.418;17.962;2023-04-24T02:47:48;5.32;;;2.40;;
70832;SDS011;58452;59.418;17.962;2023-04-24T02:50:14;4.50;;;2.33;;
70832;SDS011;58452;59.418;17.962;2023-04-24T02:52:39;4.28;;;2.28;;
70832;SDS011;58452;59.418;17.962;2023-04-24T02:55:05;8.23;;;2.65;;
70832;SDS011;58452;59.418;17.962;2023-04-24T02:57:32;5.63;;;2.25;;
70832;SDS011;58452;59.418;17.962;2023-04-24T02:59:58;6.00;;;2.63;;
70832;SDS011;58452;59.418;17.962;2023-04-24T03:02:23;7.22;;;2.53;;
70832;SDS011;58452;59.418;17.962;2023-04-24T03:04:49;5.32;;;2.60;;
70832;SDS011;58452;59.418;17.962;2023-04-24T03:07:14;5.80;;;2.58;;
70832;SDS011;58452;59.418;17.962;2023-04-24T03:09:40;3.80;;;2.00;;
70832;SDS011;58452;59.418;17.962;2023-04-24T03:12:06;6.80;;;2.45;;
70832;SDS011;58452;59.418;17.962;2023-04-24T03:14:31;4.90;;;2.10;;
70832;SDS011;58452;59.418;17.962;2023-04-24T03:16:57;5.15;;;2.30;;
70832;SDS011;58452;59.418;17.962;2023-04-24T03:19:23;3.13;;;1.60;;
70832;SDS011;58452;59.418;17.962;2023-04-24T03:21:48;3.53;;;1.83;;
70832;SDS011;58452;59.418;17.962;2023-04-24T03:24:14;4.57;;;2.40;;
70832;SDS011;58452;59.418;17.962;2023-04-24T03:26:40;3.72;;;1.92;;
70832;SDS011;58452;59.418;17.962;2023-04-24T03:29:05;2.78;;;1.73;;
70832;SDS011;58452;59.418;17.962;2023-04-24T03:31:30;4.38;;;1.65;;
70832;SDS011;58452;59.418;17.962;2023-04-24T03:33:56;3.80;;;1.70;;
70832;SDS011;58452;59.418;17.962;2023-04-24T03:36:22;4.20;;;2.05;;
70832;SDS011;58452;59.418;17.962;2023-04-24T03:38:47;2.30;;;1.58;;
70832;SDS011;58452;59.418;17.962;2023-04-24T03:41:12;2.90;;;1.70;;
70832;SDS011;58452;59.418;17.962;2023-04-24T03:43:38;3.72;;;1.77;;
70832;SDS011;58452;59.418;17.962;2023-04-24T03:46:04;3.30;;;1.70;;
70832;SDS011;58452;59.418;17.962;2023-04-24T03:48:30;3.65;;;1.88;;
70832;SDS011;58452;59.418;17.962;2023-04-24T03:50:55;5.47;;;2.47;;
70832;SDS011;58452;59.418;17.962;2023-04-24T03:53:21;5.03;;;2.33;;
70832;SDS011;58452;59.418;17.962;2023-04-24T03:55:46;7.30;;;2.78;;
70832;SDS011;58452;59.418;17.962;2023-04-24T03:58:12;4.20;;;2.13;;
70832;SDS011;58452;59.418;17.962;2023-04-24T04:00:39;7.78;;;2.67;;
70832;SDS011;58452;59.418;17.962;2023-04-24T04:03:05;3.25;;;1.75;;
70832;SDS011;58452;59.418;17.962;2023-04-24T04:05:31;3.67;;;1.95;;
70832;SDS011;58452;59.418;17.962;2023-04-24T04:07:56;9.07;;;2.55;;
70832;SDS011;58452;59.418;17.962;2023-04-24T04:10:21;3.97;;;1.77;;
70832;SDS011;58452;59.418;17.962;2023-04-24T04:12:47;4.00;;;1.80;;
70832;SDS011;58452;59.418;17.962;2023-04-24T04:15:12;5.53;;;2.30;;
70832;SDS011;58452;59.418;17.962;2023-04-24T04:17:38;4.72;;;1.70;;
70832;SDS011;58452;59.418;17.962;2023-04-24T04:20:04;6.15;;;2.53;;
70832;SDS011;58452;59.418;17.962;2023-04-24T04:22:34;4.97;;;2.33;;
70832;SDS011;58452;59.418;17.962;2023-04-24T04:24:59;7.38;;;3.28;;
70832;SDS011;58452;59.418;17.962;2023-04-24T04:27:25;5.70;;;2.83;;
70832;SDS011;58452;59.418;17.962;2023-04-24T04:29:51;5.32;;;2.92;;
70832;SDS011;58452;59.418;17.962;2023-04-24T04:32:17;7.18;;;2.88;;
70832;SDS011;58452;59.418;17.962;2023-04-24T04:34:43;4.05;;;2.42;;
70832;SDS011;58452;59.418;17.962;2023-04-24T04:37:10;7.10;;;2.85;;
70832;SDS011;58452;59.418;17.962;2023-04-24T04:39:37;6.03;;;2.90;;
70832;SDS011;58452;59.418;17.962;2023-04-24T04:42:03;8.00;;;4.43;;
70832;SDS011;58452;59.418;17.962;2023-04-24T04:44:28;6.32;;;2.60;;
70832;SDS011;58452;59.418;17.962;2023-04-24T04:46:55;5.30;;;2.75;;
70832;SDS011;58452;59.418;17.962;2023-04-24T04:49:21;6.00;;;3.00;;
70832;SDS011;58452;59.418;17.962;2023-04-24T04:51:48;5.40;;;2.20;;
70832;SDS011;58452;59.418;17.962;2023-04-24T04:54:15;6.45;;;1.90;;
70832;SDS011;58452;59.418;17.962;2023-04-24T04:56:41;5.95;;;2.60;;
70832;SDS011;58452;59.418;17.962;2023-04-24T04:59:07;6.57;;;3.03;;
70832;SDS011;58452;59.418;17.962;2023-04-24T05:01:32;6.88;;;2.20;;
70832;SDS011;58452;59.418;17.962;2023-04-24T05:03:58;5.57;;;2.40;;
70832;SDS011;58452;59.418;17.962;2023-04-24T05:06:23;4.38;;;2.13;;
70832;SDS011;58452;59.418;17.962;2023-04-24T05:08:49;5.35;;;2.63;;
70832;SDS011;58452;59.418;17.962;2023-04-24T05:11:14;6.07;;;2.58;;
70832;SDS011;58452;59.418;17.962;2023-04-24T05:13:40;6.20;;;3.40;;
70832;SDS011;58452;59.418;17.962;2023-04-24T05:16:05;6.63;;;2.60;;
70832;SDS011;58452;59.418;17.962;2023-04-24T05:18:31;5.30;;;2.80;;
70832;SDS011;58452;59.418;17.962;2023-04-24T05:20:57;7.43;;;2.90;;
70832;SDS011;58452;59.418;17.962;2023-04-24T05:23:22;6.28;;;2.85;;
70832;SDS011;58452;59.418;17.962;2023-04-24T05:25:48;6.45;;;2.72;;
70832;SDS011;58452;59.418;17.962;2023-04-24T05:28:13;7.25;;;2.90;;
70832;SDS011;58452;59.418;17.962;2023-04-24T05:30:39;5.07;;;2.22;;
70832;SDS011;58452;59.418;17.962;2023-04-24T05:33:04;6.80;;;3.20;;
70832;SDS011;58452;59.418;17.962;2023-04-24T05:35:30;4.35;;;2.65;;
70832;SDS011;58452;59.418;17.962;2023-04-24T05:37:56;6.60;;;3.00;;
70832;SDS011;58452;59.418;17.962;2023-04-24T05:40:21;7.45;;;3.50;;
70832;SDS011;58452;59.418;17.962;2023-04-24T05:42:47;6.22;;;3.03;;
70832;SDS011;58452;59.418;17.962;2023-04-24T05:45:12;5.57;;;2.88;;
70832;SDS011;58452;59.418;17.962;2023-04-24T05:47:41;7.97;;;3.08;;
70832;SDS011;58452;59.418;17.962;2023-04-24T05:50:08;5.10;;;3.03;;
70832;SDS011;58452;59.418;17.962;2023-04-24T05:52:34;6.20;;;3.63;;
70832;SDS011;58452;59.418;17.962;2023-04-24T05:55:00;5.57;;;3.13;;
70832;SDS011;58452;59.418;17.962;2023-04-24T05:57:25;5.22;;;3.10;;
70832;SDS011;58452;59.418;17.962;2023-04-24T05:59:53;5.15;;;3.33;;
70832;SDS011;58452;59.418;17.962;2023-04-24T06:02:19;5.63;;;3.15;;
70832;SDS011;58452;59.418;17.962;2023-04-24T06:04:44;5.80;;;3.45;;
70832;SDS011;58452;59.418;17.962;2023-04-24T06:07:10;6.30;;;3.47;;
70832;SDS011;58452;59.418;17.962;2023-04-24T06:09:36;6.43;;;4.13;;
70832;SDS011;58452;59.418;17.962;2023-04-24T06:12:02;7.45;;;3.85;;
70832;SDS011;58452;59.418;17.962;2023-04-24T06:14:27;5.07;;;3.40;;
70832;SDS011;58452;59.418;17.962;2023-04-24T06:16:53;4.60;;;3.38;;
70832;SDS011;58452;59.418;17.962;2023-04-24T06:19:19;5.95;;;3.35;;
70832;SDS011;58452;59.418;17.962;2023-04-24T06:21:44;6.70;;;3.72;;
70832;SDS011;58452;59.418;17.962;2023-04-24T06:24:10;7.07;;;3.67;;
70832;SDS011;58452;59.418;17.962;2023-04-24T06:26:35;6.20;;;3.60;;
70832;SDS011;58452;59.418;17.962;2023-04-24T06:29:01;8.02;;;4.13;;
70832;SDS011;58452;59.418;17.962;2023-04-24T06:31:26;9.57;;;4.95;;
70832;SDS011;58452;59.418;17.962;2023-04-24T06:33:52;6.32;;;3.88;;
70832;SDS011;58452;59.418;17.962;2023-04-24T06:36:17;7.03;;;3.95;;
70832;SDS011;58452;59.418;17.962;2023-04-24T06:38:43;6.20;;;3.72;;
70832;SDS011;58452;59.418;17.962;2023-04-24T06:41:09;7.18;;;4.40;;
70832;SDS011;58452;59.418;17.962;2023-04-24T06:43:35;6.00;;;3.95;;
70832;SDS011;58452;59.418;17.962;2023-04-24T06:46:00;5.50;;;2.83;;
70832;SDS011;58452;59.418;17.962;2023-04-24T06:48:28;4.63;;;2.80;;
70832;SDS011;58452;59.418;17.962;2023-04-24T06:50:53;4.63;;;3.25;;
70832;SDS011;58452;59.418;17.962;2023-04-24T06:53:19;6.40;;;2.85;;
70832;SDS011;58452;59.418;17.962;2023-04-24T06:55:45;3.33;;;2.28;;
70832;SDS011;58452;59.418;17.962;2023-04-24T06:58:11;5.88;;;2.70;;
70832;SDS011;58452;59.418;17.962;2023-04-24T07:00:36;4.15;;;2.25;;
70832;SDS011;58452;59.418;17.962;2023-04-24T07:03:02;4.72;;;2.80;;
70832;SDS011;58452;59.418;17.962;2023-04-24T07:05:30;3.38;;;2.25;;
70832;SDS011;58452;59.418;17.962;2023-04-24T07:07:56;3.92;;;2.03;;
70832;SDS011;58452;59.418;17.962;2023-04-24T07:10:23;3.95;;;2.22;;
70832;SDS011;58452;59.418;17.962;2023-04-24T07:12:49;3.15;;;2.03;;
70832;SDS011;58452;59.418;17.962;2023-04-24T07:15:15;3.70;;;1.70;;
70832;SDS011;58452;59.418;17.962;2023-04-24T07:17:41;4.45;;;2.47;;
70832;SDS011;58452;59.418;17.962;2023-04-24T07:20:09;3.45;;;2.17;;
70832;SDS011;58452;59.418;17.962;2023-04-24T07:22:39;2.50;;;1.63;;
70832;SDS011;58452;59.418;17.962;2023-04-24T07:25:05;3.15;;;1.70;;
70832;SDS011;58452;59.418;17.962;2023-04-24T07:27:32;4.32;;;2.15;;
70832;SDS011;58452;59.418;17.962;2023-04-24T07:29:58;4.05;;;2.38;;
70832;SDS011;58452;59.418;17.962;2023-04-24T07:32:23;3.17;;;1.70;;
70832;SDS011;58452;59.418;17.962;2023-04-24T07:34:49;3.17;;;1.60;;
70832;SDS011;58452;59.418;17.962;2023-04-24T07:37:14;2.40;;;1.77;;
70832;SDS011;58452;59.418;17.962;2023-04-24T07:39:40;3.55;;;2.08;;
70832;SDS011;58452;59.418;17.962;2023-04-24T07:42:06;3.20;;;2.00;;
70832;SDS011;58452;59.418;17.962;2023-04-24T07:44:31;2.67;;;1.98;;
70832;SDS011;58452;59.418;17.962;2023-04-24T07:46:57;2.33;;;1.67;;
70832;SDS011;58452;59.418;17.962;2023-04-24T07:49:22;2.35;;;1.60;;
70832;SDS011;58452;59.418;17.962;2023-04-24T07:51:48;2.13;;;1.90;;
70832;SDS011;58452;59.418;17.962;2023-04-24T07:54:14;2.78;;;1.77;;
70832;SDS011;58452;59.418;17.962;2023-04-24T07:56:40;2.22;;;1.50;;
70832;SDS011;58452;59.418;17.962;2023-04-24T07:59:07;3.50;;;1.85;;
70832;SDS011;58452;59.418;17.962;2023-04-24T08:01:34;5.45;;;1.95;;
70832;SDS011;58452;59.418;17.962;2023-04-24T08:04:00;4.35;;;2.53;;
70832;SDS011;58452;59.418;17.962;2023-04-24T08:06:25;3.53;;;2.10;;
70832;SDS011;58452;59.418;17.962;2023-04-24T08:08:55;2.95;;;1.85;;
70832;SDS011;58452;59.418;17.962;2023-04-24T08:11:21;1.77;;;1.40;;
70832;SDS011;58452;59.418;17.962;2023-04-24T08:13:47;3.70;;;2.55;;
70832;SDS011;58452;59.418;17.962;2023-04-24T08:16:12;3.33;;;2.28;;
70832;SDS011;58452;59.418;17.962;2023-04-24T08:18:38;8.48;;;2.97;;
70832;SDS011;58452;59.418;17.962;2023-04-24T08:21:03;3.95;;;2.67;;
70832;SDS011;58452;59.418;17.962;2023-04-24T08:23:29;3.22;;;2.03;;
70832;SDS011;58452;59.418;17.962;2023-04-24T08:25:54;2.53;;;1.80;;
70832;SDS011;58452;59.418;17.962;2023-04-24T08:28:20;3.00;;;2.03;;
70832;SDS011;58452;59.418;17.962;2023-04-24T08:30:46;4.15;;;2.10;;
70832;SDS011;58452;59.418;17.962;2023-04-24T08:33:13;3.00;;;2.33;;
70832;SDS011;58452;59.418;17.962;2023-04-24T08:35:39;3.47;;;2.40;;
70832;SDS011;58452;59.418;17.962;2023-04-24T08:38:05;2.78;;;1.80;;
70832;SDS011;58452;59.418;17.962;2023-04-24T08:40:30;3.33;;;1.70;;
70832;SDS011;58452;59.418;17.962;2023-04-24T08:42:59;2.65;;;1.67;;
70832;SDS011;58452;59.418;17.962;2023-04-24T08:45:25;3.65;;;1.83;;
70832;SDS011;58452;59.418;17.962;2023-04-24T08:47:51;3.13;;;1.83;;
70832;SDS011;58452;59.418;17.962;2023-04-24T08:50:18;3.35;;;1.65;;
70832;SDS011;58452;59.418;17.962;2023-04-24T08:52:44;2.17;;;1.60;;
70832;SDS011;58452;59.418;17.962;2023-04-24T08:55:09;4.55;;;2.53;;
70832;SDS011;58452;59.418;17.962;2023-04-24T08:57:36;3.42;;;1.60;;
70832;SDS011;58452;59.418;17.962;2023-04-24T09:00:05;2.10;;;1.40;;
70832;SDS011;58452;59.418;17.962;2023-04-24T09:02:31;4.13;;;1.63;;
70832;SDS011;58452;59.418;17.962;2023-04-24T09:04:59;2.15;;;1.40;;
70832;SDS011;58452;59.418;17.962;2023-04-24T09:07:26;1.20;;;1.10;;
70832;SDS011;58452;59.418;17.962;2023-04-24T09:09:54;2.78;;;2.20;;
70832;SDS011;58452;59.418;17.962;2023-04-24T09:12:20;2.78;;;1.65;;
70832;SDS011;58452;59.418;17.962;2023-04-24T09:14:45;2.00;;;1.58;;
70832;SDS011;58452;59.418;17.962;2023-04-24T09:17:13;2.47;;;1.67;;
70832;SDS011;58452;59.418;17.962;2023-04-24T09:19:38;3.20;;;1.83;;
70832;SDS011;58452;59.418;17.962;2023-04-24T09:22:07;1.67;;;1.30;;
70832;SDS011;58452;59.418;17.962;2023-04-24T09:24:34;2.17;;;1.40;;
70832;SDS011;58452;59.418;17.962;2023-04-24T09:27:00;1.25;;;0.90;;
70832;SDS011;58452;59.418;17.962;2023-04-24T09:29:29;3.38;;;1.50;;
70832;SDS011;58452;59.418;17.962;2023-04-24T09:31:55;4.40;;;1.33;;
70832;SDS011;58452;59.418;17.962;2023-04-24T09:34:21;2.92;;;1.67;;
70832;SDS011;58452;59.418;17.962;2023-04-24T09:36:48;2.42;;;1.08;;
70832;SDS011;58452;59.418;17.962;2023-04-24T09:39:15;2.83;;;1.50;;
70832;SDS011;58452;59.418;17.962;2023-04-24T09:42:02;2.28;;;1.33;;
70832;SDS011;58452;59.418;17.962;2023-04-24T09:44:27;3.30;;;1.73;;
70832;SDS011;58452;59.418;17.962;2023-04-24T09:46:59;4.70;;;1.95;;
70832;SDS011;58452;59.418;17.962;2023-04-24T09:49:31;3.03;;;1.92;;
70832;SDS011;58452;59.418;17.962;2023-04-24T09:52:05;3.40;;;1.77;;
70832;SDS011;58452;59.418;17.962;2023-04-24T09:54:32;1.95;;;1.75;;
70832;SDS011;58452;59.418;17.962;2023-04-24T09:56:58;2.03;;;1.63;;
70832;SDS011;58452;59.418;17.962;2023-04-24T09:59:25;1.90;;;1.60;;
70832;SDS011;58452;59.418;17.962;2023-04-24T10:01:51;2.35;;;1.77;;
70832;SDS011;58452;59.418;17.962;2023-04-24T10:04:23;3.58;;;3.00;;
70832;SDS011;58452;59.418;17.962;2023-04-24T10:06:52;3.00;;;1.60;;
70832;SDS011;58452;59.418;17.962;2023-04-24T10:09:20;1.88;;;1.38;;
70832;SDS011;58452;59.418;17.962;2023-04-24T10:11:48;3.38;;;1.67;;
70832;SDS011;58452;59.418;17.962;2023-04-24T10:14:17;4.22;;;2.17;;
70832;SDS011;58452;59.418;17.962;2023-04-24T10:16:45;3.47;;;1.70;;
70832;SDS011;58452;59.418;17.962;2023-04-24T10:19:12;4.40;;;1.60;;
70832;SDS011;58452;59.418;17.962;2023-04-24T10:21:40;2.08;;;1.70;;
70832;SDS011;58452;59.418;17.962;2023-04-24T10:24:15;1.95;;;1.67;;
70832;SDS011;58452;59.418;17.962;2023-04-24T10:26:42;4.72;;;1.83;;
70832;SDS011;58452;59.418;17.962;2023-04-24T10:29:08;1.45;;;1.30;;
70832;SDS011;58452;59.418;17.962;2023-04-24T10:31:37;3.08;;;1.55;;
70832;SDS011;58452;59.418;17.962;2023-04-24T10:34:06;3.20;;;1.73;;
70832;SDS011;58452;59.418;17.962;2023-04-24T10:36:33;2.78;;;1.65;;
70832;SDS011;58452;59.418;17.962;2023-04-24T10:39:01;3.20;;;1.42;;
70832;SDS011;58452;59.418;17.962;2023-04-24T10:41:29;3.03;;;1.60;;
70832;SDS011;58452;59.418;17.962;2023-04-24T10:46:31;1.77;;;1.50;;
70832;SDS011;58452;59.418;17.962;2023-04-24T10:48:57;2.78;;;1.20;;
70832;SDS011;58452;59.418;17.962;2023-04-24T10:51:23;1.33;;;1.20;;
70832;SDS011;58452;59.418;17.962;2023-04-24T10:53:51;5.18;;;1.20;;
70832;SDS011;58452;59.418;17.962;2023-04-24T10:56:16;3.78;;;1.40;;
70832;SDS011;58452;59.418;17.962;2023-04-24T10:58:49;4.82;;;1.17;;
70832;SDS011;58452;59.418;17.962;2023-04-24T11:01:30;5.60;;;1.52;;
70832;SDS011;58452;59.418;17.962;2023-04-24T11:04:00;2.63;;;1.70;;
70832;SDS011;58452;59.418;17.962;2023-04-24T11:06:28;2.08;;;1.70;;
70832;SDS011;58452;59.418;17.962;2023-04-24T11:09:01;2.15;;;1.38;;
70832;SDS011;58452;59.418;17.962;2023-04-24T11:11:29;3.13;;;2.47;;
70832;SDS011;58452;59.418;17.962;2023-04-24T11:16:21;2.40;;;1.33;;
70832;SDS011;58452;59.418;17.962;2023-04-24T11:19:06;2.30;;;1.98;;
70832;SDS011;58452;59.418;17.962;2023-04-24T11:24:27;7.15;;;5.53;;
70832;SDS011;58452;59.418;17.962;2023-04-24T11:27:16;1.98;;;1.52;;
70832;SDS011;58452;59.418;17.962;2023-04-24T11:29:47;3.20;;;1.80;;
70832;SDS011;58452;59.418;17.962;2023-04-24T11:32:25;3.67;;;1.58;;
70832;SDS011;58452;59.418;17.962;2023-04-24T11:35:14;4.20;;;1.55;;
70832;SDS011;58452;59.418;17.962;2023-04-24T11:37:42;3.65;;;1.10;;
70832;SDS011;58452;59.418;17.962;2023-04-24T11:40:11;4.10;;;3.50;;
70832;SDS011;58452;59.418;17.962;2023-04-24T11:42:44;2.00;;;1.40;;
70832;SDS011;58452;59.418;17.962;2023-04-24T11:45:11;2.83;;;1.83;;
70832;SDS011;58452;59.418;17.962;2023-04-24T11:47:39;4.10;;;1.88;;
70832;SDS011;58452;59.418;17.962;2023-04-24T11:50:06;4.45;;;1.60;;
70832;SDS011;58452;59.418;17.962;2023-04-24T11:52:43;2.42;;;1.38;;
70832;SDS011;58452;59.418;17.962;2023-04-24T12:00:29;3.05;;;1.33;;
70832;SDS011;58452;59.418;17.962;2023-04-24T12:03:30;1.73;;;1.20;;
70832;SDS011;58452;59.418;17.962;2023-04-24T12:05:48;2.03;;;1.80;;
70832;SDS011;58452;59.418;17.962;2023-04-24T12:08:26;2.10;;;1.23;;
70832;SDS011;58452;59.418;17.962;2023-04-24T12:10:55;2.72;;;1.60;;
70832;SDS011;58452;59.418;17.962;2023-04-24T12:13:20;1.70;;;1.23;;
70832;SDS011;58452;59.418;17.962;2023-04-24T12:15:46;3.90;;;1.83;;
70832;SDS011;58452;59.418;17.962;2023-04-24T12:18:12;2.90;;;2.40;;
70832;SDS011;58452;59.418;17.962;2023-04-24T12:20:40;4.93;;;1.92;;
70832;SDS011;58452;59.418;17.962;2023-04-24T12:23:06;2.10;;;1.90;;
70832;SDS011;58452;59.418;17.962;2023-04-24T12:25:31;2.08;;;1.40;;
70832;SDS011;58452;59.418;17.962;2023-04-24T12:30:30;4.43;;;1.80;;
70832;SDS011;58452;59.418;17.962;2023-04-24T12:32:57;5.35;;;2.63;;
70832;SDS011;58452;59.418;17.962;2023-04-24T12:35:24;3.75;;;2.40;;
70832;SDS011;58452;59.418;17.962;2023-04-24T12:37:52;4.80;;;1.88;;
70832;SDS011;58452;59.418;17.962;2023-04-24T12:40:18;3.33;;;2.20;;
70832;SDS011;58452;59.418;17.962;2023-04-24T12:42:48;3.35;;;2.33;;
70832;SDS011;58452;59.418;17.962;2023-04-24T12:45:16;4.13;;;2.10;;
70832;SDS011;58452;59.418;17.962;2023-04-24T12:47:43;4.63;;;2.28;;
70832;SDS011;58452;59.418;17.962;2023-04-24T12:50:10;4.20;;;2.28;;
70832;SDS011;58452;59.418;17.962;2023-04-24T12:52:37;5.25;;;2.22;;
70832;SDS011;58452;59.418;17.962;2023-04-24T12:55:04;2.10;;;1.90;;
70832;SDS011;58452;59.418;17.962;2023-04-24T12:57:32;3.22;;;2.03;;
70832;SDS011;58452;59.418;17.962;2023-04-24T12:59:59;5.20;;;2.58;;
70832;SDS011;58452;59.418;17.962;2023-04-24T13:02:26;5.88;;;2.20;;
70832;SDS011;58452;59.418;17.962;2023-04-24T13:04:54;2.30;;;2.10;;
70832;SDS011;58452;59.418;17.962;2023-04-24T13:07:20;3.97;;;2.30;;
70832;SDS011;58452;59.418;17.962;2023-04-24T13:09:47;3.13;;;2.30;;
70832;SDS011;58452;59.418;17.962;2023-04-24T13:12:14;3.47;;;2.10;;
70832;SDS011;58452;59.418;17.962;2023-04-24T13:14:40;9.65;;;2.78;;
70832;SDS011;58452;59.418;17.962;2023-04-24T13:17:05;8.05;;;2.80;;
70832;SDS011;58452;59.418;17.962;2023-04-24T13:19:39;4.30;;;3.05;;
70832;SDS011;58452;59.418;17.962;2023-04-24T13:22:06;3.15;;;2.10;;
70832;SDS011;58452;59.418;17.962;2023-04-24T13:24:32;3.45;;;2.30;;
70832;SDS011;58452;59.418;17.962;2023-04-24T13:26:58;3.95;;;2.70;;
70832;SDS011;58452;59.418;17.962;2023-04-24T13:29:25;3.05;;;2.28;;
70832;SDS011;58452;59.418;17.962;2023-04-24T13:31:50;9.18;;;2.80;;
70832;SDS011;58452;59.418;17.962;2023-04-24T13:34:17;6.88;;;2.92;;
70832;SDS011;58452;59.418;17.962;2023-04-24T13:36:43;4.93;;;2.50;;
70832;SDS011;58452;59.418;17.962;2023-04-24T13:39:08;4.47;;;3.40;;
70832;SDS011;58452;59.418;17.962;2023-04-24T13:41:34;3.53;;;2.80;;
70832;SDS011;58452;59.418;17.962;2023-04-24T13:44:01;3.33;;;3.00;;
70832;SDS011;58452;59.418;17.962;2023-04-24T13:46:27;4.47;;;2.35;;
70832;SDS011;58452;59.418;17.962;2023-04-24T13:48:52;9.05;;;2.92;;
70832;SDS011;58452;59.418;17.962;2023-04-24T13:51:17;3.72;;;2.78;;
70832;SDS011;58452;59.418;17.962;2023-04-24T13:53:43;4.20;;;3.20;;
70832;SDS011;58452;59.418;17.962;2023-04-24T13:56:08;5.97;;;2.67;;
70832;SDS011;58452;59.418;17.962;2023-04-24T13:58:34;8.52;;;3.22;;
70832;SDS011;58452;59.418;17.962;2023-04-24T14:01:02;6.70;;;2.35;;
70832;SDS011;58452;59.418;17.962;2023-04-24T14:03:28;5.75;;;3.13;;
70832;SDS011;58452;59.418;17.962;2023-04-24T14:05:53;5.70;;;2.70;;
70832;SDS011;58452;59.418;17.962;2023-04-24T14:08:19;5.57;;;3.38;;
70832;SDS011;58452;59.418;17.962;2023-04-24T14:10:44;3.88;;;2.80;;
70832;SDS011;58452;59.418;17.962;2023-04-24T14:13:10;7.85;;;3.83;;
70832;SDS011;58452;59.418;17.962;2023-04-24T14:15:36;3.20;;;2.72;;
70832;SDS011;58452;59.418;17.962;2023-04-24T14:18:03;10.90;;;3.22;;
70832;SDS011;58452;59.418;17.962;2023-04-24T14:20:28;3.88;;;2.53;;
70832;SDS011;58452;59.418;17.962;2023-04-24T14:22:54;4.03;;;2.75;;
70832;SDS011;58452;59.418;17.962;2023-04-24T14:25:20;3.08;;;2.63;;
70832;SDS011;58452;59.418;17.962;2023-04-24T14:27:47;8.82;;;3.40;;
70832;SDS011;58452;59.418;17.962;2023-04-24T14:30:13;5.93;;;2.65;;
70832;SDS011;58452;59.418;17.962;2023-04-24T14:32:39;7.63;;;4.28;;
70832;SDS011;58452;59.418;17.962;2023-04-24T14:35:05;4.07;;;3.05;;
70832;SDS011;58452;59.418;17.962;2023-04-24T14:37:31;6.03;;;2.65;;
70832;SDS011;58452;59.418;17.962;2023-04-24T14:39:57;5.82;;;2.65;;
70832;SDS011;58452;59.418;17.962;2023-04-24T14:42:22;5.20;;;2.65;;
70832;SDS011;58452;59.418;17.962;2023-04-24T14:44:47;5.30;;;2.70;;
70832;SDS011;58452;59.418;17.962;2023-04-24T14:47:13;5.35;;;2.83;;